Terminal Aerodrome Forecast
Issued by NWS

Home | Current Version | Previous Version | Text Only | Print | Product List | Glossary On
Versions: 1 2 3 4 5 6 7 8 9 10 11 12 13 14 15
000
FTUS44 KLZK 301100
TAFPBF
TAF
KPBF 301132Z 3012/3112 00000KT P6SM BKN250
     FM301500 18005KT P6SM SCT080 BKN120
     FM302200 01006KT P6SM VCSH BKN060 OVC100
     FM310200 02003KT 5SM -SHRA OVC050
      TEMPO 3109/3112 2SM SHRA BR OVC025=

USA.gov is the U.S. government's official web portal to all federal, state and local government web resources and services.